Time;durP1;ratioP1;P1;durP2;ratioP2;P2;SDS_P1;SDS_P2;PMS_P1;PMS_P2;Temp;Humidity;BMP_temperature;BMP_pressure;BME280_temperature;BME280_humidity;BME280_pressure;Samples;Min_cycle;Max_cycle;Signal;HPM_P1;HPM_P2
2022/04/08 00:00:48;;;;;;;3.10;1.63;;;18.90;98.50;;;;;;4245191;27;20598;-73
2022/04/08 00:02:52;;;;;;;4.07;1.75;;;18.90;98.60;;;;;;4245175;27;20224;-73
2022/04/08 00:04:57;;;;;;;3.60;1.70;;;19.00;98.60;;;;;;4245680;27;20221;-73
2022/04/08 00:06:59;;;;;;;2.70;1.40;;;18.90;98.50;;;;;;4246170;27;20217;-73
2022/04/08 00:09:01;;;;;;;2.75;1.52;;;18.90;98.50;;;;;;4247513;27;20217;-73
2022/04/08 00:11:04;;;;;;;2.63;1.20;;;18.90;98.40;;;;;;4246766;27;20220;-73
2022/04/08 00:13:06;;;;;;;3.75;1.67;;;18.90;98.50;;;;;;4245393;27;20624;-73
2022/04/08 00:15:09;;;;;;;2.60;1.35;;;18.80;98.50;;;;;;4247310;27;20221;-73
2022/04/08 00:17:12;;;;;;;2.63;1.13;;;18.90;98.50;;;;;;4246750;27;21020;-73
2022/04/08 00:19:14;;;;;;;3.72;1.70;;;18.90;98.40;;;;;;4246101;27;20793;-73
2022/04/08 00:21:18;;;;;;;3.92;1.63;;;18.90;98.50;;;;;;4247022;27;20213;-73
2022/04/08 00:23:21;;;;;;;4.60;1.35;;;18.90;98.50;;;;;;4247253;27;20209;-73
2022/04/08 00:25:23;;;;;;;2.72;1.33;;;18.90;98.50;;;;;;4245417;27;20217;-73
2022/04/08 00:27:25;;;;;;;2.38;1.42;;;18.90;98.50;;;;;;4246551;27;20217;-73
2022/04/08 00:29:28;;;;;;;4.20;1.60;;;18.90;98.50;;;;;;4245966;27;20210;-73
2022/04/08 00:31:30;;;;;;;3.42;1.42;;;18.90;98.50;;;;;;4246113;27;20221;-73
2022/04/08 00:33:33;;;;;;;4.30;1.73;;;18.90;98.50;;;;;;4245404;27;20282;-73
2022/04/08 00:35:35;;;;;;;4.07;1.40;;;18.80;98.70;;;;;;4246597;27;20209;-73
2022/04/08 00:37:39;;;;;;;5.57;1.58;;;18.80;98.50;;;;;;4247170;27;20212;-73
2022/04/08 00:39:42;;;;;;;4.07;1.50;;;18.80;98.40;;;;;;4246716;27;20217;-73
2022/04/08 00:41:44;;;;;;;3.15;1.42;;;18.90;98.50;;;;;;4243771;27;20237;-73
2022/04/08 00:43:46;;;;;;;4.80;1.52;;;18.80;98.50;;;;;;4247253;27;20221;-73
2022/04/08 00:45:49;;;;;;;3.35;1.38;;;18.80;98.60;;;;;;4246108;27;20269;-73
2022/04/08 00:47:51;;;;;;;3.75;1.55;;;18.90;98.50;;;;;;4243702;27;20213;-73
2022/04/08 00:49:54;;;;;;;3.38;1.35;;;18.80;98.50;;;;;;4246939;27;20229;-73
2022/04/08 00:51:57;;;;;;;2.42;1.30;;;18.80;98.50;;;;;;4245750;27;20220;-73
2022/04/08 00:54:01;;;;;;;2.90;1.65;;;18.80;98.50;;;;;;4246847;27;20221;-73
2022/04/08 00:56:04;;;;;;;4.32;1.65;;;18.80;98.40;;;;;;4245741;27;20221;-73
2022/04/08 00:58:06;;;;;;;4.28;1.40;;;18.80;98.50;;;;;;4246873;27;20209;-73
2022/04/08 01:00:11;;;;;;;3.67;1.40;;;18.80;98.50;;;;;;4247088;27;20709;-73
2022/04/08 01:02:15;;;;;;;3.45;1.40;;;18.80;98.40;;;;;;4244693;27;20313;-73
2022/04/08 01:04:17;;;;;;;3.20;1.35;;;18.80;98.40;;;;;;4245428;27;20250;-73
2022/04/08 01:06:20;;;;;;;4.85;1.73;;;18.80;98.30;;;;;;4243463;27;20669;-73
2022/04/08 01:08:22;;;;;;;3.17;1.38;;;18.80;98.50;;;;;;4241835;27;20652;-73
2022/04/08 01:10:26;;;;;;;3.20;1.35;;;18.90;98.70;;;;;;4247104;27;20258;-73
2022/04/08 01:12:28;;;;;;;3.20;1.48;;;18.80;98.40;;;;;;4246012;27;20205;-73
2022/04/08 01:14:31;;;;;;;3.97;1.45;;;18.80;98.30;;;;;;4242876;27;20209;-73
2022/04/08 01:16:33;;;;;;;4.50;1.30;;;18.80;98.30;;;;;;4244989;27;20205;-73
2022/04/08 01:18:35;;;;;;;2.45;1.40;;;18.80;98.40;;;;;;4245820;27;20209;-73
2022/04/08 01:20:38;;;;;;;3.95;1.30;;;18.80;98.40;;;;;;4246146;27;20277;-73
2022/04/08 01:22:41;;;;;;;4.30;1.45;;;18.80;98.40;;;;;;4245192;27;20241;-73
2022/04/08 01:24:47;;;;;;;4.78;1.83;;;18.80;98.50;;;;;;4245255;27;20205;-74
2022/04/08 01:26:52;;;;;;;3.08;1.42;;;18.80;98.60;;;;;;4244443;27;20258;-73
2022/04/08 01:28:56;;;;;;;2.75;1.30;;;18.80;98.40;;;;;;4245684;27;20209;-73
2022/04/08 01:30:59;;;;;;;2.85;1.10;;;18.80;98.40;;;;;;4245960;27;20270;-73
2022/04/08 01:33:01;;;;;;;4.65;1.50;;;18.80;98.40;;;;;;4245104;27;20314;-73
2022/04/08 01:35:04;;;;;;;3.15;1.20;;;18.70;98.30;;;;;;4246183;27;20205;-73
2022/04/08 01:37:07;;;;;;;3.58;1.25;;;18.80;98.40;;;;;;4245942;27;20266;-74
2022/04/08 01:39:09;;;;;;;2.92;1.52;;;18.70;98.30;;;;;;4242466;27;20633;-74
2022/04/08 01:41:11;;;;;;;2.92;1.63;;;18.80;98.30;;;;;;4246301;27;20221;-74
2022/04/08 01:43:15;;;;;;;3.00;1.40;;;18.80;98.40;;;;;;4244827;27;20237;-69
2022/04/08 01:45:17;;;;;;;1.80;1.08;;;18.70;98.30;;;;;;4245039;27;20630;-70
2022/04/08 01:47:19;;;;;;;2.95;1.40;;;18.80;98.30;;;;;;4243632;27;20225;-70
2022/04/08 01:49:22;;;;;;;2.42;1.30;;;18.70;98.30;;;;;;4245514;27;20242;-70
2022/04/08 01:51:24;;;;;;;3.38;1.58;;;18.80;98.30;;;;;;4244916;27;20733;-70
2022/04/08 01:53:27;;;;;;;2.42;1.33;;;18.70;98.30;;;;;;4245478;27;20209;-70
2022/04/08 01:55:29;;;;;;;3.65;1.70;;;18.70;98.30;;;;;;4243853;27;20665;-70
2022/04/08 01:57:32;;;;;;;1.75;1.20;;;18.70;98.20;;;;;;4245035;27;20236;-70
2022/04/08 01:59:35;;;;;;;4.32;1.73;;;18.70;98.30;;;;;;4243553;27;20450;-71
2022/04/08 02:01:38;;;;;;;3.20;1.38;;;18.70;98.30;;;;;;4243471;27;20213;-71
2022/04/08 02:03:40;;;;;;;2.80;1.23;;;18.70;98.20;;;;;;4242483;27;20283;-71
2022/04/08 02:05:42;;;;;;;2.75;1.20;;;18.70;98.20;;;;;;4245270;27;20228;-71
2022/04/08 02:07:45;;;;;;;3.75;1.42;;;18.70;98.30;;;;;;4243715;27;20611;-70
2022/04/08 02:09:47;;;;;;;2.33;1.10;;;18.70;98.30;;;;;;4243906;27;20566;-70
2022/04/08 02:11:50;;;;;;;2.97;1.20;;;18.70;98.30;;;;;;4244425;27;20217;-73
2022/04/08 02:13:52;;;;;;;1.73;1.10;;;18.70;98.20;;;;;;4245013;27;20220;-73
2022/04/08 02:15:56;;;;;;;5.38;1.60;;;18.70;98.30;;;;;;4244565;27;20281;-73
2022/04/08 02:17:58;;;;;;;3.90;1.27;;;18.70;98.20;;;;;;4244973;27;20262;-73
2022/04/08 02:20:01;;;;;;;2.75;1.35;;;18.70;98.20;;;;;;4245137;27;20209;-73
2022/04/08 02:22:05;;;;;;;2.10;0.90;;;18.70;98.20;;;;;;4244888;27;20221;-73
2022/04/08 02:24:09;;;;;;;2.75;1.40;;;18.70;98.20;;;;;;4244992;27;20197;-73
2022/04/08 02:26:13;;;;;;;2.42;1.30;;;18.60;98.20;;;;;;4239786;27;20641;-73
2022/04/08 02:28:15;;;;;;;3.05;1.10;;;18.70;98.20;;;;;;4244917;27;20213;-73
2022/04/08 02:30:18;;;;;;;2.83;1.35;;;18.70;98.10;;;;;;4242236;27;20212;-73
2022/04/08 02:32:21;;;;;;;2.15;1.10;;;18.70;98.20;;;;;;4244366;27;20311;-73
2022/04/08 02:34:24;;;;;;;2.72;1.27;;;18.60;98.10;;;;;;4244017;27;20233;-73
2022/04/08 02:36:26;;;;;;;3.28;1.30;;;18.60;98.20;;;;;;4242823;27;20235;-73
2022/04/08 02:38:28;;;;;;;2.60;1.30;;;18.60;98.10;;;;;;4244087;27;20266;-73
2022/04/08 02:40:31;;;;;;;3.30;1.20;;;18.70;98.30;;;;;;4245098;27;20209;-73
2022/04/08 02:42:33;;;;;;;2.85;1.60;;;18.60;98.10;;;;;;4243293;27;20212;-73
2022/04/08 02:44:35;;;;;;;2.20;1.25;;;18.60;98.00;;;;;;4243807;27;20297;-73
2022/04/08 02:46:38;;;;;;;2.58;1.20;;;18.60;98.00;;;;;;4243521;27;20598;-73
2022/04/08 02:48:41;;;;;;;2.97;1.20;;;18.60;98.00;;;;;;4244210;27;20690;-73
2022/04/08 02:50:44;;;;;;;2.78;1.08;;;18.60;98.00;;;;;;4244853;27;20209;-73
2022/04/08 02:52:46;;;;;;;2.85;1.27;;;18.60;98.00;;;;;;4245230;27;20922;-73
2022/04/08 02:54:48;;;;;;;2.60;1.05;;;18.60;98.10;;;;;;4241905;27;20926;-73
2022/04/08 02:56:51;;;;;;;3.55;1.15;;;18.60;98.00;;;;;;4240165;27;20637;-73
2022/04/08 02:58:54;;;;;;;3.33;1.13;;;18.60;97.90;;;;;;4242889;27;20212;-73
2022/04/08 03:00:59;;;;;;;1.90;1.00;;;18.60;97.90;;;;;;4243672;27;20266;-73
2022/04/08 03:03:02;;;;;;;4.18;1.40;;;18.60;98.00;;;;;;4241454;27;20273;-73
2022/04/08 03:05:07;;;;;;;3.97;1.30;;;18.60;97.90;;;;;;4241274;28;20265;-73
2022/04/08 03:07:10;;;;;;;3.13;1.25;;;18.60;97.90;;;;;;4244779;28;20217;-73
2022/04/08 03:09:12;;;;;;;5.35;1.52;;;18.50;98.00;;;;;;4244072;28;20297;-73
2022/04/08 03:11:14;;;;;;;3.88;1.25;;;18.50;97.80;;;;;;4244714;27;20265;-73
2022/04/08 03:13:17;;;;;;;2.80;1.30;;;18.50;97.90;;;;;;4244588;28;20205;-73
2022/04/08 03:15:19;;;;;;;3.50;1.20;;;18.50;97.90;;;;;;4240541;27;20225;-73
2022/04/08 03:17:21;;;;;;;2.90;1.10;;;18.50;97.80;;;;;;4247731;27;20265;-73
2022/04/08 03:19:24;;;;;;;4.28;1.40;;;18.60;97.80;;;;;;4248243;27;20217;-73
2022/04/08 03:21:28;;;;;;;3.20;0.93;;;18.60;97.80;;;;;;4246486;27;20217;-74
2022/04/08 03:23:30;;;;;;;3.65;1.13;;;18.50;97.80;;;;;;4245374;27;20236;-71
2022/04/08 03:25:32;;;;;;;1.63;1.20;;;18.60;97.90;;;;;;4247703;27;20688;-70
2022/04/08 03:27:34;;;;;;;2.35;1.30;;;18.50;97.80;;;;;;4246129;27;20270;-71
2022/04/08 03:29:37;;;;;;;2.35;1.08;;;18.50;97.80;;;;;;4248060;27;20266;-70
2022/04/08 03:31:39;;;;;;;3.10;1.17;;;18.50;97.80;;;;;;4247904;27;20260;-70
2022/04/08 03:33:42;;;;;;;2.05;1.15;;;18.50;97.80;;;;;;4247410;27;20233;-70
2022/04/08 03:35:44;;;;;;;2.35;1.35;;;18.50;97.80;;;;;;4247386;27;20246;-70
2022/04/08 03:37:48;;;;;;;1.85;1.00;;;18.50;97.70;;;;;;4244303;27;20293;-70
2022/04/08 03:39:50;;;;;;;4.28;1.42;;;18.50;97.80;;;;;;4246973;27;20217;-71
2022/04/08 03:41:53;;;;;;;2.53;1.17;;;18.50;97.80;;;;;;4247800;27;20664;-71
2022/04/08 03:43:55;;;;;;;2.85;1.35;;;18.50;97.80;;;;;;4245735;27;20731;-71
2022/04/08 03:45:58;;;;;;;3.30;1.33;;;18.50;97.80;;;;;;4246141;27;20209;-70
2022/04/08 03:48:00;;;;;;;2.88;1.40;;;18.50;97.80;;;;;;4247325;27;20630;-70
2022/04/08 03:50:03;;;;;;;3.25;1.33;;;18.50;97.70;;;;;;4245334;27;20265;-70
2022/04/08 03:52:06;;;;;;;3.10;1.23;;;18.50;97.80;;;;;;4247642;27;20733;-71
2022/04/08 03:54:10;;;;;;;2.53;0.93;;;18.50;97.80;;;;;;4247526;27;20209;-70
2022/04/08 03:56:12;;;;;;;2.40;1.20;;;18.50;97.70;;;;;;4246735;27;20217;-70
2022/04/08 03:58:15;;;;;;;2.25;1.00;;;18.50;97.80;;;;;;4247685;27;20212;-70
2022/04/08 04:00:18;;;;;;;1.45;0.90;;;18.50;97.70;;;;;;4247886;27;20205;-71
2022/04/08 04:02:20;;;;;;;2.92;1.15;;;18.40;97.50;;;;;;4244089;27;20856;-70
2022/04/08 04:04:23;;;;;;;2.78;0.90;;;18.50;97.60;;;;;;4245497;27;20240;-70
2022/04/08 04:06:25;;;;;;;2.05;1.13;;;18.50;97.60;;;;;;4247445;27;20221;-70
2022/04/08 04:08:28;;;;;;;2.22;1.10;;;18.40;97.60;;;;;;4247480;27;20661;-71
2022/04/08 04:10:31;;;;;;;2.22;1.20;;;18.40;97.40;;;;;;4246589;27;20504;-70
2022/04/08 04:12:34;;;;;;;2.28;1.00;;;18.40;97.50;;;;;;4245854;27;20726;-70
2022/04/08 04:14:36;;;;;;;2.60;1.10;;;18.40;97.60;;;;;;4246282;27;20247;-71
2022/04/08 04:16:38;;;;;;;3.13;1.20;;;18.40;97.60;;;;;;4245931;27;20209;-71
2022/04/08 04:18:41;;;;;;;3.25;1.40;;;18.40;97.50;;;;;;4245367;27;20250;-71
2022/04/08 04:20:43;;;;;;;3.67;1.27;;;18.40;97.50;;;;;;4246173;27;20242;-71
2022/04/08 04:22:47;;;;;;;1.55;1.02;;;18.40;97.60;;;;;;4247405;27;20213;-70
2022/04/08 04:24:50;;;;;;;3.67;1.30;;;18.40;97.80;;;;;;4245579;27;20690;-71
2022/04/08 04:26:53;;;;;;;2.83;1.20;;;18.40;97.30;;;;;;4244236;27;20204;-70
2022/04/08 04:28:55;;;;;;;3.00;1.38;;;18.40;97.30;;;;;;4245421;27;20318;-70
2022/04/08 04:30:59;;;;;;;2.10;0.95;;;18.40;97.30;;;;;;4244977;27;20547;-71
2022/04/08 04:33:02;;;;;;;2.47;1.30;;;18.40;97.30;;;;;;4246726;27;20258;-71
2022/04/08 04:35:07;;;;;;;1.48;1.00;;;18.40;97.30;;;;;;4246253;27;20220;-71
2022/04/08 04:37:11;;;;;;;1.85;0.93;;;18.40;97.30;;;;;;4246051;27;20205;-71
2022/04/08 04:39:13;;;;;;;2.15;1.08;;;18.40;97.30;;;;;;4247244;27;20209;-71
2022/04/08 04:41:17;;;;;;;3.90;1.02;;;18.40;97.40;;;;;;4247588;27;20258;-70
2022/04/08 04:43:21;;;;;;;3.90;1.40;;;18.40;97.30;;;;;;4241297;27;20254;-70
2022/04/08 04:45:23;;;;;;;2.45;1.15;;;18.40;97.30;;;;;;4246720;27;20233;-70
2022/04/08 04:47:26;;;;;;;3.58;1.40;;;18.40;97.30;;;;;;4247260;27;20270;-70
2022/04/08 04:49:28;;;;;;;3.35;1.33;;;18.30;97.30;;;;;;4247166;27;20217;-70
2022/04/08 04:51:30;;;;;;;2.10;1.10;;;18.40;97.30;;;;;;4244668;27;20221;-70
2022/04/08 04:53:33;;;;;;;4.35;1.10;;;18.30;97.60;;;;;;4246436;27;20216;-71
2022/04/08 04:55:35;;;;;;;2.70;1.10;;;18.10;97.40;;;;;;4246599;27;20289;-70
2022/04/08 04:57:39;;;;;;;2.35;1.00;;;17.90;97.80;;;;;;4246982;27;20217;-70
2022/04/08 04:59:42;;;;;;;2.13;0.90;;;18.00;97.80;;;;;;4246828;27;20621;-70
2022/04/08 05:01:45;;;;;;;3.75;1.13;;;18.10;97.50;;;;;;4244194;27;20213;-71
2022/04/08 05:03:47;;;;;;;1.83;0.90;;;18.10;97.40;;;;;;4244089;27;20221;-73
2022/04/08 05:05:51;;;;;;;3.47;1.10;;;18.30;97.90;;;;;;4247485;27;20217;-73
2022/04/08 05:07:53;;;;;;;2.38;1.00;;;18.30;97.60;;;;;;4243691;27;20220;-73
2022/04/08 05:09:55;;;;;;;3.10;1.10;;;18.40;97.70;;;;;;4246565;27;20286;-73
2022/04/08 05:11:57;;;;;;;2.22;0.95;;;18.40;97.90;;;;;;4246097;27;20225;-73
2022/04/08 05:14:00;;;;;;;3.05;1.20;;;18.40;97.80;;;;;;4246813;27;20217;-73
2022/04/08 05:16:05;;;;;;;1.95;0.90;;;18.40;98.10;;;;;;4246081;27;20221;-73
2022/04/08 05:18:07;;;;;;;2.28;1.10;;;18.40;98.10;;;;;;4246269;27;20217;-73
2022/04/08 05:20:10;;;;;;;3.53;1.25;;;18.50;98.20;;;;;;4245870;27;20258;-73
2022/04/08 05:22:12;;;;;;;2.13;0.80;;;18.50;98.10;;;;;;4245250;27;20328;-73
2022/04/08 05:24:14;;;;;;;2.72;1.20;;;18.50;98.30;;;;;;4246035;27;20236;-74
2022/04/08 05:26:17;;;;;;;2.30;0.90;;;18.50;98.20;;;;;;4245810;27;20205;-74
2022/04/08 05:28:19;;;;;;;1.90;0.80;;;18.50;98.20;;;;;;4243883;27;20205;-73
2022/04/08 05:30:22;;;;;;;1.92;1.08;;;18.50;98.30;;;;;;4246766;27;20265;-73
2022/04/08 05:32:25;;;;;;;2.63;1.13;;;18.60;98.50;;;;;;4245939;27;20824;-73
2022/04/08 05:34:28;;;;;;;1.25;0.60;;;18.60;98.50;;;;;;4245300;27;20224;-73
2022/04/08 05:36:30;;;;;;;2.58;1.08;;;18.60;98.30;;;;;;4244640;27;20621;-73
2022/04/08 05:38:33;;;;;;;1.63;0.82;;;18.60;98.50;;;;;;4243942;27;20217;-73
2022/04/08 05:40:35;;;;;;;2.38;1.05;;;18.70;98.60;;;;;;4245968;27;20221;-73
2022/04/08 05:42:39;;;;;;;1.65;0.93;;;18.70;98.70;;;;;;4244902;27;20209;-73
2022/04/08 05:44:41;;;;;;;2.08;1.00;;;18.70;98.60;;;;;;4245485;27;20278;-73
2022/04/08 05:46:44;;;;;;;1.75;0.90;;;18.70;98.60;;;;;;4243246;27;20205;-73
2022/04/08 05:48:47;;;;;;;2.47;0.90;;;18.80;98.70;;;;;;4242642;27;20289;-73
2022/04/08 05:50:50;;;;;;;2.13;0.93;;;18.80;98.90;;;;;;4242440;27;20213;-73
2022/04/08 05:52:52;;;;;;;2.13;0.88;;;18.80;98.90;;;;;;4244456;27;20221;-73
2022/04/08 05:54:55;;;;;;;2.42;0.88;;;18.80;98.80;;;;;;4245699;27;20209;-73
2022/04/08 05:57:00;;;;;;;2.08;1.00;;;18.90;98.90;;;;;;4244043;27;20265;-74
2022/04/08 05:59:03;;;;;;;4.70;1.17;;;18.90;98.90;;;;;;4243940;27;20217;-74
2022/04/08 06:01:05;;;;;;;2.38;0.85;;;18.90;98.90;;;;;;4244903;27;20217;-73
2022/04/08 06:03:07;;;;;;;1.67;1.10;;;18.90;98.90;;;;;;4244385;27;20262;-73
2022/04/08 06:05:11;;;;;;;1.80;0.73;;;19.00;98.90;;;;;;4245677;27;20633;-73
2022/04/08 06:07:14;;;;;;;2.80;0.98;;;18.90;98.80;;;;;;4243530;27;20561;-73
2022/04/08 06:09:16;;;;;;;1.42;0.90;;;19.00;98.90;;;;;;4244749;27;20664;-73
2022/04/08 06:11:18;;;;;;;0.93;0.80;;;19.00;99.00;;;;;;4244478;27;20258;-73
2022/04/08 06:13:24;;;;;;;3.55;1.20;;;19.00;98.80;;;;;;4243891;27;20218;-73
2022/04/08 06:15:26;;;;;;;2.67;1.00;;;19.00;98.90;;;;;;4242068;27;20229;-74
2022/04/08 06:17:36;;;;;;;1.40;0.70;;;19.10;99.00;;;;;;4245516;27;20257;-74
2022/04/08 06:19:38;;;;;;;2.70;1.05;;;19.10;99.00;;;;;;4244973;27;20644;-74
2022/04/08 06:21:42;;;;;;;2.95;1.05;;;19.10;98.90;;;;;;4245453;27;20216;-74
2022/04/08 06:23:46;;;;;;;2.33;0.80;;;19.10;98.90;;;;;;4243390;27;20262;-73
2022/04/08 06:25:49;;;;;;;2.20;0.88;;;19.10;98.90;;;;;;4245458;27;20244;-73
2022/04/08 06:27:58;;;;;;;1.83;0.70;;;19.10;98.80;;;;;;4241865;27;20352;-73
2022/04/08 06:30:00;;;;;;;3.42;1.17;;;19.20;98.90;;;;;;4244531;27;20324;-73
2022/04/08 06:32:03;;;;;;;2.45;0.77;;;19.20;98.90;;;;;;4242826;27;20641;-74
2022/04/08 06:34:05;;;;;;;2.33;1.02;;;19.20;98.90;;;;;;4244317;27;20648;-73
2022/04/08 06:36:07;;;;;;;1.02;0.68;;;19.20;98.80;;;;;;4244041;27;20217;-74
2022/04/08 06:38:11;;;;;;;1.70;1.00;;;19.20;98.80;;;;;;4245122;27;20341;-74
2022/04/08 06:40:14;;;;;;;2.15;1.00;;;19.20;98.70;;;;;;4237002;27;20267;-74
2022/04/08 06:42:16;;;;;;;2.13;0.93;;;19.20;98.80;;;;;;4241540;27;20548;-74
2022/04/08 06:44:18;;;;;;;1.63;0.90;;;19.20;98.70;;;;;;4242927;27;20301;-73
2022/04/08 06:46:21;;;;;;;2.30;0.88;;;19.20;98.60;;;;;;4245117;27;20638;-74
2022/04/08 06:48:23;;;;;;;3.47;1.10;;;19.20;98.70;;;;;;4242493;27;20209;-76
2022/04/08 06:50:26;;;;;;;3.03;1.00;;;19.30;98.70;;;;;;4242960;27;20205;-76
2022/04/08 06:52:29;;;;;;;1.58;0.88;;;19.30;98.70;;;;;;4241783;27;20213;-76
2022/04/08 06:54:32;;;;;;;2.97;0.90;;;19.20;98.60;;;;;;4244782;27;20213;-76
2022/04/08 06:56:35;;;;;;;2.60;1.02;;;19.30;98.70;;;;;;4242630;27;20263;-73
2022/04/08 06:58:39;;;;;;;1.80;0.60;;;19.30;98.70;;;;;;4244708;27;20221;-73
2022/04/08 07:00:41;;;;;;;2.67;0.93;;;19.30;98.60;;;;;;4243296;27;20216;-73
2022/04/08 07:02:43;;;;;;;1.75;0.73;;;19.30;98.60;;;;;;4243133;27;20242;-73
2022/04/08 07:04:45;;;;;;;3.03;1.20;;;19.30;98.60;;;;;;4241131;27;20217;-74
2022/04/08 07:06:48;;;;;;;8.27;1.20;;;19.30;98.60;;;;;;4241482;27;20229;-76
2022/04/08 07:08:50;;;;;;;6.10;1.48;;;19.30;97.70;;;;;;4243557;28;21595;-76
2022/04/08 07:10:54;;;;;;;2.55;1.08;;;19.20;97.60;;;;;;4243408;27;20213;-76
2022/04/08 07:12:56;;;;;;;2.78;1.02;;;19.20;98.10;;;;;;4241575;27;20266;-76
2022/04/08 07:14:58;;;;;;;3.05;1.35;;;19.30;98.00;;;;;;4238483;28;20279;-75
2022/04/08 07:17:01;;;;;;;5.70;1.15;;;19.30;97.30;;;;;;4240640;27;20254;-76
2022/04/08 07:19:03;;;;;;;4.40;1.02;;;19.30;97.20;;;;;;4241828;27;20375;-75
2022/04/08 07:21:06;;;;;;;3.22;0.90;;;19.30;97.40;;;;;;4237633;27;20221;-75
2022/04/08 07:23:08;;;;;;;3.28;1.00;;;19.40;97.50;;;;;;4238224;27;20274;-76
2022/04/08 07:25:12;;;;;;;4.25;1.30;;;19.40;97.30;;;;;;4242150;27;20266;-76
2022/04/08 07:27:16;;;;;;;2.58;1.20;;;19.40;97.10;;;;;;4240304;27;20231;-76
2022/04/08 07:29:18;;;;;;;2.67;0.98;;;19.50;97.00;;;;;;4240587;27;20251;-76
2022/04/08 07:31:20;;;;;;;3.28;1.00;;;19.50;97.70;;;;;;4238927;27;21516;-75
2022/04/08 07:33:22;;;;;;;7.15;1.25;;;19.40;97.40;;;;;;4236611;27;20233;-75
2022/04/08 07:35:26;;;;;;;4.00;1.00;;;19.50;97.50;;;;;;4238461;27;20205;-75
2022/04/08 07:37:29;;;;;;;6.05;1.10;;;19.50;97.30;;;;;;4246453;27;20209;-75
2022/04/08 07:39:32;;;;;;;2.08;1.00;;;19.50;97.10;;;;;;4233128;27;20218;-75
2022/04/08 07:41:34;;;;;;;9.43;1.40;;;19.50;97.00;;;;;;4237304;27;20221;-75
2022/04/08 07:43:38;;;;;;;4.43;1.13;;;19.50;96.90;;;;;;4237827;27;20259;-75
2022/04/08 07:45:40;;;;;;;2.83;1.02;;;19.60;97.00;;;;;;4245441;27;20284;-75
2022/04/08 07:47:42;;;;;;;4.13;1.10;;;19.60;97.00;;;;;;4243628;27;20210;-74
2022/04/08 07:49:45;;;;;;;3.58;1.20;;;19.50;97.00;;;;;;4244826;27;20217;-75
2022/04/08 07:51:47;;;;;;;3.10;0.98;;;19.50;96.90;;;;;;4234207;27;20215;-75
2022/04/08 07:53:50;;;;;;;4.20;1.10;;;19.50;96.90;;;;;;4229563;28;20274;-75
2022/04/08 07:55:53;;;;;;;4.10;1.00;;;19.60;96.90;;;;;;4245920;27;20209;-76
2022/04/08 07:57:55;;;;;;;3.22;1.27;;;19.50;96.90;;;;;;4230350;27;20209;-75
2022/04/08 07:59:59;;;;;;;2.83;1.23;;;19.60;96.90;;;;;;4239405;27;20212;-75
2022/04/08 08:02:01;;;;;;;2.47;0.98;;;19.60;97.00;;;;;;4245313;27;20209;-75
2022/04/08 08:04:04;;;;;;;4.47;1.35;;;19.60;97.00;;;;;;4242440;27;20221;-75
2022/04/08 08:06:06;;;;;;;2.53;0.80;;;19.60;97.00;;;;;;4239355;27;20221;-75
2022/04/08 08:08:09;;;;;;;4.20;1.20;;;19.50;96.90;;;;;;4239188;27;20600;-75
2022/04/08 08:10:15;;;;;;;3.30;1.00;;;19.60;97.00;;;;;;4241289;27;20209;-75
2022/04/08 08:12:18;;;;;;;3.83;1.17;;;19.50;96.70;;;;;;4247959;27;20213;-75
2022/04/08 08:14:23;;;;;;;2.42;1.00;;;19.60;96.80;;;;;;4245245;27;20712;-75
2022/04/08 08:16:27;;;;;;;3.78;1.10;;;19.60;96.70;;;;;;4249023;27;20254;-76
2022/04/08 08:18:29;;;;;;;2.50;0.95;;;19.60;96.70;;;;;;4245317;27;20262;-75
2022/04/08 08:20:32;;;;;;;3.35;1.00;;;19.60;96.80;;;;;;4243232;27;20205;-75
2022/04/08 08:22:34;;;;;;;3.67;1.27;;;19.50;96.40;;;;;;4241741;27;20209;-75
2022/04/08 08:24:36;;;;;;;3.65;0.82;;;19.60;96.80;;;;;;4240374;27;20221;-75
2022/04/08 08:26:39;;;;;;;3.15;1.27;;;19.50;97.00;;;;;;4239014;27;20240;-74
2022/04/08 08:28:41;;;;;;;3.05;1.00;;;19.50;96.80;;;;;;4239009;27;20212;-74
2022/04/08 08:30:44;;;;;;;3.00;0.93;;;19.60;96.70;;;;;;4237723;27;20213;-74
2022/04/08 08:32:49;;;;;;;2.38;1.27;;;19.60;96.90;;;;;;4243013;27;20213;-74
2022/04/08 08:34:51;;;;;;;3.33;0.98;;;19.60;96.80;;;;;;4241663;27;20263;-74
2022/04/08 08:36:59;;;;;;;3.03;1.10;;;19.60;96.80;;;;;;4242541;27;20243;-75
2022/04/08 08:39:02;;;;;;;2.33;1.20;;;19.60;96.80;;;;;;4242258;27;20213;-75
2022/04/08 08:41:04;;;;;;;5.82;1.20;;;19.60;96.70;;;;;;4243913;27;21078;-75
2022/04/08 08:43:07;;;;;;;5.55;1.30;;;19.60;96.70;;;;;;4243703;27;20626;-75
2022/04/08 08:45:11;;;;;;;4.55;1.20;;;19.60;96.70;;;;;;4245866;27;20734;-75
2022/04/08 08:47:13;;;;;;;2.60;1.30;;;19.70;96.90;;;;;;4243282;27;20282;-75
2022/04/08 08:49:20;;;;;;;4.40;1.20;;;19.60;96.90;;;;;;4235286;27;20273;-75
2022/04/08 08:51:24;;;;;;;2.50;1.23;;;19.60;96.80;;;;;;4242138;27;20209;-74
2022/04/08 08:53:29;;;;;;;2.30;1.10;;;19.60;96.70;;;;;;4242952;27;20683;-74
2022/04/08 08:55:31;;;;;;;3.45;1.25;;;19.70;96.80;;;;;;4238446;27;20217;-74
2022/04/08 08:57:34;;;;;;;3.15;1.00;;;19.70;96.80;;;;;;4237502;27;20583;-75
2022/04/08 09:02:01;;;;;;;4.35;1.08;;;19.70;96.80;;;;;;4244049;27;20611;-74
2022/04/08 09:04:05;;;;;;;1.83;0.95;;;19.70;96.80;;;;;;4241853;27;20221;-75
2022/04/08 09:06:10;;;;;;;3.55;1.17;;;19.70;96.80;;;;;;4242516;27;20266;-75
2022/04/08 09:08:13;;;;;;;2.25;1.15;;;19.70;96.80;;;;;;4233832;27;20209;-75
2022/04/08 09:10:16;;;;;;;1.98;1.00;;;19.60;96.80;;;;;;4237948;27;20217;-75
2022/04/08 09:12:18;;;;;;;3.97;0.98;;;19.70;96.80;;;;;;4244496;27;20481;-75
2022/04/08 09:14:27;;;;;;;4.57;1.23;;;19.70;96.80;;;;;;4234372;27;20222;-74
2022/04/08 09:16:29;;;;;;;3.58;1.20;;;19.60;96.50;;;;;;4244048;27;20655;-75
2022/04/08 09:18:37;;;;;;;3.53;1.15;;;19.60;96.60;;;;;;4238375;27;20214;-75
2022/04/08 09:20:41;;;;;;;5.55;1.10;;;19.70;96.60;;;;;;4244414;27;20213;-74
2022/04/08 09:22:54;;;;;;;3.85;1.30;;;19.60;96.40;;;;;;4244525;27;20213;-75
2022/04/08 09:25:06;;;;;;;2.60;1.05;;;19.70;96.70;;;;;;4232214;27;20213;-75
2022/04/08 09:27:08;;;;;;;1.65;1.00;;;19.70;96.70;;;;;;4234931;27;20266;-74
2022/04/08 09:29:10;;;;;;;2.15;1.15;;;19.70;96.70;;;;;;4234065;27;21229;-74
2022/04/08 09:31:17;;;;;;;2.67;1.20;;;19.70;96.80;;;;;;4236497;27;20217;-74
2022/04/08 09:33:24;;;;;;;3.88;1.20;;;19.70;96.80;;;;;;4238427;27;20233;-75
2022/04/08 09:35:26;;;;;;;2.55;1.10;;;19.70;96.70;;;;;;4239730;27;20258;-75
2022/04/08 09:37:29;;;;;;;4.07;1.20;;;19.70;96.70;;;;;;4244778;27;20223;-74
2022/04/08 09:39:33;;;;;;;3.65;1.20;;;19.70;96.70;;;;;;4237102;27;20222;-74
2022/04/08 09:41:40;;;;;;;6.75;1.45;;;19.70;96.70;;;;;;4241784;27;20208;-75
2022/04/08 09:43:42;;;;;;;3.17;1.10;;;19.70;96.70;;;;;;4238488;27;20258;-75
2022/04/08 09:45:46;;;;;;;3.67;1.30;;;19.70;96.70;;;;;;4238967;27;20631;-75
2022/04/08 09:47:48;;;;;;;3.50;1.08;;;19.80;96.80;;;;;;4242339;27;20233;-75
2022/04/08 09:49:50;;;;;;;3.70;1.40;;;19.80;96.80;;;;;;4238980;27;20278;-75
2022/04/08 09:51:54;;;;;;;3.63;1.23;;;19.80;96.80;;;;;;4241130;27;20262;-75
2022/04/08 09:53:58;;;;;;;2.53;1.10;;;19.80;96.80;;;;;;4236021;27;20217;-75
2022/04/08 09:56:02;;;;;;;3.60;1.02;;;19.80;96.80;;;;;;4241429;27;20270;-75
2022/04/08 09:58:08;;;;;;;3.08;1.20;;;19.70;96.70;;;;;;4244094;27;20201;-75
2022/04/08 10:00:10;;;;;;;3.67;1.27;;;19.80;96.80;;;;;;4244333;27;20204;-75
2022/04/08 10:02:14;;;;;;;4.72;1.40;;;19.80;97.10;;;;;;4241184;27;20609;-75
2022/04/08 10:04:16;;;;;;;3.05;1.30;;;19.80;96.80;;;;;;4237359;27;20328;-75
2022/04/08 10:06:23;;;;;;;3.05;1.33;;;19.80;96.80;;;;;;4240398;27;20218;-75
2022/04/08 10:08:25;;;;;;;3.10;1.48;;;19.80;96.80;;;;;;4237870;27;20273;-74
2022/04/08 10:10:32;;;;;;;4.32;1.20;;;19.80;96.70;;;;;;4238771;27;20258;-75
2022/04/08 10:12:46;;;;;;;4.45;1.40;;;19.80;97.20;;;;;;4242404;27;20217;-75
2022/04/08 10:14:57;;;;;;;5.18;1.42;;;19.80;96.70;;;;;;4241475;27;20217;-75
2022/04/08 10:16:59;;;;;;;3.55;1.42;;;19.80;96.70;;;;;;4240317;27;20209;-75
2022/04/08 10:19:06;;;;;;;4.78;1.00;;;19.80;96.70;;;;;;4241924;27;20266;-75
2022/04/08 10:21:10;;;;;;;3.25;1.20;;;19.80;96.70;;;;;;4241417;27;20277;-75
2022/04/08 10:23:14;;;;;;;2.88;1.10;;;19.80;96.70;;;;;;4244534;27;20273;-75
2022/04/08 10:25:17;;;;;;;3.30;1.35;;;19.80;96.30;;;;;;4238592;27;20222;-75
2022/04/08 10:27:29;;;;;;;2.60;1.00;;;19.80;96.30;;;;;;4234774;27;20233;-75
2022/04/08 10:29:34;;;;;;;4.82;1.40;;;19.80;96.40;;;;;;4239188;27;20217;-75
2022/04/08 10:31:36;;;;;;;3.40;1.30;;;19.80;96.90;;;;;;4239104;27;20619;-75
2022/04/08 10:33:47;;;;;;;4.05;1.38;;;19.80;96.80;;;;;;4238622;27;20639;-75
2022/04/08 10:35:53;;;;;;;2.58;1.08;;;19.80;96.70;;;;;;4231144;27;20277;-75
2022/04/08 10:37:57;;;;;;;4.05;1.20;;;19.80;96.80;;;;;;4237395;27;20201;-75
2022/04/08 10:40:02;;;;;;;4.05;1.40;;;19.80;96.80;;;;;;4239046;27;22685;-75
2022/04/08 10:42:06;;;;;;;4.07;1.50;;;19.80;96.80;;;;;;4241344;27;20210;-76
2022/04/08 10:44:09;;;;;;;5.88;1.42;;;19.80;96.10;;;;;;4240375;27;20258;-76